sensor_id;sensor_type;location;lat;lon;timestamp;temperature;humidity
52943;DHT22;38809;53.300;6.614;2023-05-29T00:01:33;9.40;99.90
52943;DHT22;38809;53.300;6.614;2023-05-29T00:03:59;9.30;99.90
52943;DHT22;38809;53.300;6.614;2023-05-29T00:06:25;9.40;99.90
52943;DHT22;38809;53.300;6.614;2023-05-29T00:08:51;9.40;99.90
52943;DHT22;38809;53.300;6.614;2023-05-29T00:11:17;9.40;99.90
52943;DHT22;38809;53.300;6.614;2023-05-29T00:13:42;9.40;99.90
52943;DHT22;38809;53.300;6.614;2023-05-29T00:16:08;9.40;99.90
52943;DHT22;38809;53.300;6.614;2023-05-29T00:18:35;9.40;99.90
52943;DHT22;38809;53.300;6.614;2023-05-29T00:21:01;9.40;99.90
52943;DHT22;38809;53.300;6.614;2023-05-29T00:23:27;9.50;99.90
52943;DHT22;38809;53.300;6.614;2023-05-29T00:25:53;9.50;99.90
52943;DHT22;38809;53.300;6.614;2023-05-29T00:28:19;9.40;99.90
52943;DHT22;38809;53.300;6.614;2023-05-29T00:30:44;9.30;99.90
52943;DHT22;38809;53.300;6.614;2023-05-29T00:33:10;9.30;99.90
52943;DHT22;38809;53.300;6.614;2023-05-29T00:35:36;9.30;99.90
52943;DHT22;38809;53.300;6.614;2023-05-29T00:38:02;9.30;99.90
52943;DHT22;38809;53.300;6.614;2023-05-29T00:40:27;9.30;99.90
52943;DHT22;38809;53.300;6.614;2023-05-29T00:42:53;9.20;99.90
52943;DHT22;38809;53.300;6.614;2023-05-29T00:45:19;9.20;99.90
52943;DHT22;38809;53.300;6.614;2023-05-29T00:47:45;9.20;99.90
52943;DHT22;38809;53.300;6.614;2023-05-29T00:50:12;9.30;99.90
52943;DHT22;38809;53.300;6.614;2023-05-29T00:52:41;9.30;99.90
52943;DHT22;38809;53.300;6.614;2023-05-29T00:55:07;9.20;99.90
52943;DHT22;38809;53.300;6.614;2023-05-29T00:57:33;9.10;99.90
52943;DHT22;38809;53.300;6.614;2023-05-29T01:00:00;9.20;99.90
52943;DHT22;38809;53.300;6.614;2023-05-29T01:02:29;9.20;99.90
52943;DHT22;38809;53.300;6.614;2023-05-29T01:04:56;9.20;99.90
52943;DHT22;38809;53.300;6.614;2023-05-29T01:07:22;9.30;99.90
52943;DHT22;38809;53.300;6.614;2023-05-29T01:09:48;9.30;99.90
52943;DHT22;38809;53.300;6.614;2023-05-29T01:18:07;9.50;99.90
52943;DHT22;38809;53.300;6.614;2023-05-29T01:20:36;9.40;99.90
52943;DHT22;38809;53.300;6.614;2023-05-29T01:28:33;9.50;99.90
52943;DHT22;38809;53.300;6.614;2023-05-29T01:31:02;9.60;99.90
52943;DHT22;38809;53.300;6.614;2023-05-29T01:33:29;9.60;99.90
52943;DHT22;38809;53.300;6.614;2023-05-29T01:35:55;9.60;99.90
52943;DHT22;38809;53.300;6.614;2023-05-29T01:38:20;9.60;99.90
52943;DHT22;38809;53.300;6.614;2023-05-29T01:40:47;9.70;99.90
52943;DHT22;38809;53.300;6.614;2023-05-29T01:43:13;9.60;99.90
52943;DHT22;38809;53.300;6.614;2023-05-29T01:45:39;9.60;99.90
52943;DHT22;38809;53.300;6.614;2023-05-29T01:48:06;9.70;99.90
52943;DHT22;38809;53.300;6.614;2023-05-29T01:50:32;9.80;99.90
52943;DHT22;38809;53.300;6.614;2023-05-29T01:52:58;9.70;99.90
52943;DHT22;38809;53.300;6.614;2023-05-29T01:55:24;9.80;99.90
52943;DHT22;38809;53.300;6.614;2023-05-29T01:57:50;9.80;99.90
52943;DHT22;38809;53.300;6.614;2023-05-29T02:00:17;9.70;99.90
52943;DHT22;38809;53.300;6.614;2023-05-29T02:02:44;9.70;99.90
52943;DHT22;38809;53.300;6.614;2023-05-29T02:05:10;9.70;99.90
52943;DHT22;38809;53.300;6.614;2023-05-29T02:07:36;9.80;99.90
52943;DHT22;38809;53.300;6.614;2023-05-29T02:10:05;9.80;99.90
52943;DHT22;38809;53.300;6.614;2023-05-29T02:12:30;9.80;99.90
52943;DHT22;38809;53.300;6.614;2023-05-29T02:14:56;9.90;99.90
52943;DHT22;38809;53.300;6.614;2023-05-29T02:17:22;9.90;99.90
52943;DHT22;38809;53.300;6.614;2023-05-29T02:19:48;9.90;99.90
52943;DHT22;38809;53.300;6.614;2023-05-29T02:22:14;9.80;99.90
52943;DHT22;38809;53.300;6.614;2023-05-29T02:24:40;9.80;99.90
52943;DHT22;38809;53.300;6.614;2023-05-29T02:27:05;9.70;99.90
52943;DHT22;38809;53.300;6.614;2023-05-29T02:29:32;9.70;99.90
52943;DHT22;38809;53.300;6.614;2023-05-29T02:31:57;9.70;99.90
52943;DHT22;38809;53.300;6.614;2023-05-29T02:34:23;9.70;99.90
52943;DHT22;38809;53.300;6.614;2023-05-29T02:36:50;9.80;99.90
52943;DHT22;38809;53.300;6.614;2023-05-29T02:39:17;9.70;99.90
52943;DHT22;38809;53.300;6.614;2023-05-29T02:41:43;9.80;99.90
52943;DHT22;38809;53.300;6.614;2023-05-29T02:44:09;9.90;99.90
52943;DHT22;38809;53.300;6.614;2023-05-29T02:46:34;9.80;99.90
52943;DHT22;38809;53.300;6.614;2023-05-29T02:49:00;9.80;99.90
52943;DHT22;38809;53.300;6.614;2023-05-29T02:51:26;9.70;99.90
52943;DHT22;38809;53.300;6.614;2023-05-29T02:53:53;9.80;99.90
52943;DHT22;38809;53.300;6.614;2023-05-29T02:56:19;9.90;99.90
52943;DHT22;38809;53.300;6.614;2023-05-29T02:58:49;9.80;99.90
52943;DHT22;38809;53.300;6.614;2023-05-29T03:01:15;9.90;99.90
52943;DHT22;38809;53.300;6.614;2023-05-29T03:03:41;9.80;99.90
52943;DHT22;38809;53.300;6.614;2023-05-29T03:06:06;9.80;99.90
52943;DHT22;38809;53.300;6.614;2023-05-29T03:08:34;9.80;99.90
52943;DHT22;38809;53.300;6.614;2023-05-29T03:11:00;9.70;99.90
52943;DHT22;38809;53.300;6.614;2023-05-29T03:13:26;9.80;99.90
52943;DHT22;38809;53.300;6.614;2023-05-29T03:15:52;9.80;99.90
52943;DHT22;38809;53.300;6.614;2023-05-29T03:18:22;9.80;99.90
52943;DHT22;38809;53.300;6.614;2023-05-29T03:20:48;9.80;99.90
52943;DHT22;38809;53.300;6.614;2023-05-29T03:23:14;9.90;99.90
52943;DHT22;38809;53.300;6.614;2023-05-29T03:25:40;9.80;99.90
52943;DHT22;38809;53.300;6.614;2023-05-29T03:28:06;9.80;99.90
52943;DHT22;38809;53.300;6.614;2023-05-29T03:30:31;9.90;99.90
52943;DHT22;38809;53.300;6.614;2023-05-29T03:32:57;9.80;99.90
52943;DHT22;38809;53.300;6.614;2023-05-29T03:35:31;9.80;99.90
52943;DHT22;38809;53.300;6.614;2023-05-29T03:37:57;9.80;99.90
52943;DHT22;38809;53.300;6.614;2023-05-29T03:40:23;9.80;99.90
52943;DHT22;38809;53.300;6.614;2023-05-29T03:42:49;9.90;99.90
52943;DHT22;38809;53.300;6.614;2023-05-29T03:45:14;9.90;99.90
52943;DHT22;38809;53.300;6.614;2023-05-29T03:47:40;9.90;99.90
52943;DHT22;38809;53.300;6.614;2023-05-29T03:50:06;9.90;99.90
52943;DHT22;38809;53.300;6.614;2023-05-29T03:52:33;9.90;99.90
52943;DHT22;38809;53.300;6.614;2023-05-29T03:54:58;9.90;99.90
52943;DHT22;38809;53.300;6.614;2023-05-29T03:57:24;9.90;99.90
52943;DHT22;38809;53.300;6.614;2023-05-29T03:59:50;9.90;99.90
52943;DHT22;38809;53.300;6.614;2023-05-29T04:02:15;10.00;99.90
52943;DHT22;38809;53.300;6.614;2023-05-29T04:04:41;10.00;99.90
52943;DHT22;38809;53.300;6.614;2023-05-29T04:07:08;10.10;99.90
52943;DHT22;38809;53.300;6.614;2023-05-29T04:09:34;10.20;99.90
52943;DHT22;38809;53.300;6.614;2023-05-29T04:12:00;10.10;99.90
52943;DHT22;38809;53.300;6.614;2023-05-29T04:14:28;10.10;99.90
52943;DHT22;38809;53.300;6.614;2023-05-29T04:16:53;10.00;99.90
52943;DHT22;38809;53.300;6.614;2023-05-29T04:19:19;10.00;99.90
52943;DHT22;38809;53.300;6.614;2023-05-29T04:21:46;9.90;99.90
52943;DHT22;38809;53.300;6.614;2023-05-29T04:24:14;10.00;99.90
52943;DHT22;38809;53.300;6.614;2023-05-29T04:26:39;9.80;99.90
52943;DHT22;38809;53.300;6.614;2023-05-29T04:29:11;9.80;99.90
52943;DHT22;38809;53.300;6.614;2023-05-29T04:31:38;9.90;99.90
52943;DHT22;38809;53.300;6.614;2023-05-29T04:34:04;10.00;99.90
52943;DHT22;38809;53.300;6.614;2023-05-29T04:36:30;10.00;99.90
52943;DHT22;38809;53.300;6.614;2023-05-29T04:38:58;10.00;99.90
52943;DHT22;38809;53.300;6.614;2023-05-29T04:41:24;10.10;99.90
52943;DHT22;38809;53.300;6.614;2023-05-29T04:43:57;10.10;99.90
52943;DHT22;38809;53.300;6.614;2023-05-29T04:46:24;10.10;99.90
52943;DHT22;38809;53.300;6.614;2023-05-29T04:48:53;10.10;99.90
52943;DHT22;38809;53.300;6.614;2023-05-29T04:51:19;10.10;99.90
52943;DHT22;38809;53.300;6.614;2023-05-29T04:53:45;10.10;99.90
52943;DHT22;38809;53.300;6.614;2023-05-29T04:56:12;10.10;99.90
52943;DHT22;38809;53.300;6.614;2023-05-29T04:58:38;10.40;99.90
52943;DHT22;38809;53.300;6.614;2023-05-29T05:01:03;10.50;99.90
52943;DHT22;38809;53.300;6.614;2023-05-29T05:03:31;10.40;99.90
52943;DHT22;38809;53.300;6.614;2023-05-29T05:05:59;10.50;99.90
52943;DHT22;38809;53.300;6.614;2023-05-29T05:08:25;10.50;99.90
52943;DHT22;38809;53.300;6.614;2023-05-29T05:10:51;10.70;99.90
52943;DHT22;38809;53.300;6.614;2023-05-29T05:13:16;11.20;99.90
52943;DHT22;38809;53.300;6.614;2023-05-29T05:15:42;11.30;99.90
52943;DHT22;38809;53.300;6.614;2023-05-29T05:18:08;11.40;99.90
52943;DHT22;38809;53.300;6.614;2023-05-29T05:20:33;11.40;99.90
52943;DHT22;38809;53.300;6.614;2023-05-29T05:22:59;11.40;99.90
52943;DHT22;38809;53.300;6.614;2023-05-29T05:25:25;11.40;99.90
52943;DHT22;38809;53.300;6.614;2023-05-29T05:27:51;11.50;99.90
52943;DHT22;38809;53.300;6.614;2023-05-29T05:30:16;11.70;99.90
52943;DHT22;38809;53.300;6.614;2023-05-29T05:32:42;11.80;99.90
52943;DHT22;38809;53.300;6.614;2023-05-29T05:35:08;11.90;99.90
52943;DHT22;38809;53.300;6.614;2023-05-29T05:37:37;11.70;99.90
52943;DHT22;38809;53.300;6.614;2023-05-29T05:40:03;11.50;99.90
52943;DHT22;38809;53.300;6.614;2023-05-29T05:42:32;11.50;99.90
52943;DHT22;38809;53.300;6.614;2023-05-29T05:44:57;11.30;99.90
52943;DHT22;38809;53.300;6.614;2023-05-29T05:47:23;11.50;99.90
52943;DHT22;38809;53.300;6.614;2023-05-29T05:49:49;11.50;99.90
52943;DHT22;38809;53.300;6.614;2023-05-29T05:52:18;11.80;99.90
52943;DHT22;38809;53.300;6.614;2023-05-29T05:54:44;11.80;99.90
52943;DHT22;38809;53.300;6.614;2023-05-29T05:57:11;11.70;99.90
52943;DHT22;38809;53.300;6.614;2023-05-29T05:59:36;12.00;99.90
52943;DHT22;38809;53.300;6.614;2023-05-29T06:02:03;11.70;99.90
52943;DHT22;38809;53.300;6.614;2023-05-29T06:04:29;11.80;99.90
52943;DHT22;38809;53.300;6.614;2023-05-29T06:06:55;11.60;99.90
52943;DHT22;38809;53.300;6.614;2023-05-29T06:09:21;11.60;99.90
52943;DHT22;38809;53.300;6.614;2023-05-29T06:11:47;11.50;99.90
52943;DHT22;38809;53.300;6.614;2023-05-29T06:14:13;11.40;99.90
52943;DHT22;38809;53.300;6.614;2023-05-29T06:16:39;11.50;99.90
52943;DHT22;38809;53.300;6.614;2023-05-29T06:19:05;11.50;99.90
52943;DHT22;38809;53.300;6.614;2023-05-29T06:21:31;11.70;99.90
52943;DHT22;38809;53.300;6.614;2023-05-29T06:23:57;11.70;99.90
52943;DHT22;38809;53.300;6.614;2023-05-29T06:26:23;11.90;99.90
52943;DHT22;38809;53.300;6.614;2023-05-29T06:28:52;11.80;99.90
52943;DHT22;38809;53.300;6.614;2023-05-29T06:31:18;11.80;99.90
52943;DHT22;38809;53.300;6.614;2023-05-29T06:33:45;11.80;99.90
52943;DHT22;38809;53.300;6.614;2023-05-29T06:36:10;11.70;99.90
52943;DHT22;38809;53.300;6.614;2023-05-29T06:38:37;11.70;99.90
52943;DHT22;38809;53.300;6.614;2023-05-29T06:41:03;11.70;99.90
52943;DHT22;38809;53.300;6.614;2023-05-29T06:43:29;11.90;99.90
52943;DHT22;38809;53.300;6.614;2023-05-29T06:45:55;11.80;99.90
52943;DHT22;38809;53.300;6.614;2023-05-29T06:48:20;11.90;99.90
52943;DHT22;38809;53.300;6.614;2023-05-29T06:50:49;11.90;99.90
52943;DHT22;38809;53.300;6.614;2023-05-29T06:53:15;11.90;99.90
52943;DHT22;38809;53.300;6.614;2023-05-29T06:55:41;12.00;99.90
52943;DHT22;38809;53.300;6.614;2023-05-29T06:58:07;11.80;99.90
52943;DHT22;38809;53.300;6.614;2023-05-29T07:00:33;12.00;99.90
52943;DHT22;38809;53.300;6.614;2023-05-29T07:02:58;11.90;99.90
52943;DHT22;38809;53.300;6.614;2023-05-29T07:05:26;12.10;99.90
52943;DHT22;38809;53.300;6.614;2023-05-29T07:07:51;12.10;99.90
52943;DHT22;38809;53.300;6.614;2023-05-29T07:10:17;12.20;99.90
52943;DHT22;38809;53.300;6.614;2023-05-29T07:12:43;12.30;99.90
52943;DHT22;38809;53.300;6.614;2023-05-29T07:15:09;12.30;99.90
52943;DHT22;38809;53.300;6.614;2023-05-29T07:17:35;12.70;99.90
52943;DHT22;38809;53.300;6.614;2023-05-29T07:20:01;12.70;99.90
52943;DHT22;38809;53.300;6.614;2023-05-29T07:22:26;13.00;99.90
52943;DHT22;38809;53.300;6.614;2023-05-29T07:24:52;12.90;99.90
52943;DHT22;38809;53.300;6.614;2023-05-29T07:27:18;12.90;99.90
52943;DHT22;38809;53.300;6.614;2023-05-29T07:29:43;13.00;99.90
52943;DHT22;38809;53.300;6.614;2023-05-29T07:32:09;12.80;99.90
52943;DHT22;38809;53.300;6.614;2023-05-29T07:34:35;12.90;99.90
52943;DHT22;38809;53.300;6.614;2023-05-29T07:37:03;13.10;99.90
52943;DHT22;38809;53.300;6.614;2023-05-29T07:39:30;13.20;99.90
52943;DHT22;38809;53.300;6.614;2023-05-29T07:41:56;13.00;99.90
52943;DHT22;38809;53.300;6.614;2023-05-29T07:44:22;12.80;99.90
52943;DHT22;38809;53.300;6.614;2023-05-29T07:46:48;12.60;99.90
52943;DHT22;38809;53.300;6.614;2023-05-29T07:49:14;12.60;99.90
52943;DHT22;38809;53.300;6.614;2023-05-29T07:51:40;12.70;99.90
52943;DHT22;38809;53.300;6.614;2023-05-29T07:54:05;12.70;99.90
52943;DHT22;38809;53.300;6.614;2023-05-29T07:56:31;13.00;99.90
52943;DHT22;38809;53.300;6.614;2023-05-29T07:58:59;13.10;99.90
52943;DHT22;38809;53.300;6.614;2023-05-29T08:01:25;13.40;99.90
52943;DHT22;38809;53.300;6.614;2023-05-29T08:03:52;13.60;99.90
52943;DHT22;38809;53.300;6.614;2023-05-29T08:06:18;13.40;99.90
52943;DHT22;38809;53.300;6.614;2023-05-29T08:08:44;13.20;99.90
52943;DHT22;38809;53.300;6.614;2023-05-29T08:11:10;12.90;99.90
52943;DHT22;38809;53.300;6.614;2023-05-29T08:13:36;12.90;99.90
52943;DHT22;38809;53.300;6.614;2023-05-29T08:16:02;13.00;99.90
52943;DHT22;38809;53.300;6.614;2023-05-29T08:18:30;13.00;99.90
52943;DHT22;38809;53.300;6.614;2023-05-29T08:20:56;13.10;99.90
52943;DHT22;38809;53.300;6.614;2023-05-29T08:23:22;12.80;99.90
52943;DHT22;38809;53.300;6.614;2023-05-29T08:25:48;12.90;99.90
52943;DHT22;38809;53.300;6.614;2023-05-29T08:28:16;12.90;99.90
52943;DHT22;38809;53.300;6.614;2023-05-29T08:30:42;13.00;99.90
52943;DHT22;38809;53.300;6.614;2023-05-29T08:33:08;12.70;99.90
52943;DHT22;38809;53.300;6.614;2023-05-29T08:35:34;12.80;99.90
52943;DHT22;38809;53.300;6.614;2023-05-29T08:38:00;12.80;99.90
52943;DHT22;38809;53.300;6.614;2023-05-29T08:40:26;13.00;99.90
52943;DHT22;38809;53.300;6.614;2023-05-29T08:42:57;12.80;99.90
52943;DHT22;38809;53.300;6.614;2023-05-29T08:45:25;13.10;99.90
52943;DHT22;38809;53.300;6.614;2023-05-29T08:47:52;13.10;99.90
52943;DHT22;38809;53.300;6.614;2023-05-29T08:50:20;13.20;99.90
52943;DHT22;38809;53.300;6.614;2023-05-29T08:52:46;13.20;99.90
52943;DHT22;38809;53.300;6.614;2023-05-29T08:55:12;13.00;99.90
52943;DHT22;38809;53.300;6.614;2023-05-29T08:57:38;13.00;99.90
52943;DHT22;38809;53.300;6.614;2023-05-29T09:00:06;12.90;99.90
52943;DHT22;38809;53.300;6.614;2023-05-29T09:02:41;12.90;99.90
52943;DHT22;38809;53.300;6.614;2023-05-29T09:05:09;13.10;99.90
52943;DHT22;38809;53.300;6.614;2023-05-29T09:07:38;13.30;99.90
52943;DHT22;38809;53.300;6.614;2023-05-29T09:10:09;13.40;99.90
52943;DHT22;38809;53.300;6.614;2023-05-29T09:12:35;13.40;99.90
52943;DHT22;38809;53.300;6.614;2023-05-29T09:15:01;13.40;99.90
52943;DHT22;38809;53.300;6.614;2023-05-29T09:17:31;13.60;99.90
52943;DHT22;38809;53.300;6.614;2023-05-29T09:19:58;13.70;99.90
52943;DHT22;38809;53.300;6.614;2023-05-29T09:22:23;13.60;99.90
52943;DHT22;38809;53.300;6.614;2023-05-29T09:24:49;13.70;99.90
52943;DHT22;38809;53.300;6.614;2023-05-29T09:27:17;13.90;99.90
52943;DHT22;38809;53.300;6.614;2023-05-29T09:29:44;14.30;99.90
52943;DHT22;38809;53.300;6.614;2023-05-29T09:32:13;14.20;99.90
52943;DHT22;38809;53.300;6.614;2023-05-29T09:34:39;13.80;99.90
52943;DHT22;38809;53.300;6.614;2023-05-29T09:37:07;13.80;99.90
52943;DHT22;38809;53.300;6.614;2023-05-29T09:39:50;13.70;99.90
52943;DHT22;38809;53.300;6.614;2023-05-29T09:42:19;14.20;99.90
52943;DHT22;38809;53.300;6.614;2023-05-29T09:44:49;14.60;99.90
52943;DHT22;38809;53.300;6.614;2023-05-29T09:47:19;14.40;99.90
52943;DHT22;38809;53.300;6.614;2023-05-29T09:49:45;14.10;99.90
52943;DHT22;38809;53.300;6.614;2023-05-29T09:52:14;14.40;99.90
52943;DHT22;38809;53.300;6.614;2023-05-29T09:54:44;14.50;99.90
52943;DHT22;38809;53.300;6.614;2023-05-29T09:57:14;14.70;99.90
52943;DHT22;38809;53.300;6.614;2023-05-29T09:59:43;14.60;99.90
52943;DHT22;38809;53.300;6.614;2023-05-29T10:02:11;14.90;99.90
52943;DHT22;38809;53.300;6.614;2023-05-29T10:04:38;14.50;99.90
52943;DHT22;38809;53.300;6.614;2023-05-29T10:09:47;14.40;99.90
52943;DHT22;38809;53.300;6.614;2023-05-29T10:12:19;14.20;99.90
52943;DHT22;38809;53.300;6.614;2023-05-29T10:14:49;14.70;99.90
52943;DHT22;38809;53.300;6.614;2023-05-29T10:17:15;14.80;99.90
52943;DHT22;38809;53.300;6.614;2023-05-29T10:19:43;14.60;99.90
52943;DHT22;38809;53.300;6.614;2023-05-29T10:22:13;14.60;99.90
52943;DHT22;38809;53.300;6.614;2023-05-29T10:24:39;15.10;99.90
52943;DHT22;38809;53.300;6.614;2023-05-29T10:27:05;14.40;99.90
52943;DHT22;38809;53.300;6.614;2023-05-29T10:29:37;14.60;99.90
52943;DHT22;38809;53.300;6.614;2023-05-29T10:32:17;14.60;99.90
52943;DHT22;38809;53.300;6.614;2023-05-29T10:39:54;14.40;99.90
52943;DHT22;38809;53.300;6.614;2023-05-29T10:42:50;14.70;99.90
52943;DHT22;38809;53.300;6.614;2023-05-29T10:50:55;14.60;99.90
52943;DHT22;38809;53.300;6.614;2023-05-29T10:53:25;15.20;99.90
52943;DHT22;38809;53.300;6.614;2023-05-29T10:55:52;15.10;99.90
52943;DHT22;38809;53.300;6.614;2023-05-29T10:58:20;14.90;99.90
52943;DHT22;38809;53.300;6.614;2023-05-29T11:00:46;15.00;99.90
52943;DHT22;38809;53.300;6.614;2023-05-29T11:06:03;15.20;99.90
52943;DHT22;38809;53.300;6.614;2023-05-29T11:11:30;15.00;99.90
52943;DHT22;38809;53.300;6.614;2023-05-29T11:14:04;14.50;99.90
52943;DHT22;38809;53.300;6.614;2023-05-29T11:18:57;14.50;99.90
52943;DHT22;38809;53.300;6.614;2023-05-29T11:21:46;14.80;99.90
52943;DHT22;38809;53.300;6.614;2023-05-29T11:24:23;15.00;99.90
52943;DHT22;38809;53.300;6.614;2023-05-29T11:26:51;15.00;99.90
52943;DHT22;38809;53.300;6.614;2023-05-29T11:29:24;15.20;99.90
52943;DHT22;38809;53.300;6.614;2023-05-29T11:32:02;15.70;99.90
52943;DHT22;38809;53.300;6.614;2023-05-29T11:34:29;15.30;99.90
52943;DHT22;38809;53.300;6.614;2023-05-29T11:37:02;15.20;99.90
52943;DHT22;38809;53.300;6.614;2023-05-29T11:39:29;15.30;99.90
52943;DHT22;38809;53.300;6.614;2023-05-29T11:41:56;15.20;99.90
52943;DHT22;38809;53.300;6.614;2023-05-29T11:44:25;14.80;99.90
52943;DHT22;38809;53.300;6.614;2023-05-29T11:49:35;15.10;99.90
52943;DHT22;38809;53.300;6.614;2023-05-29T11:52:13;15.10;99.90
52943;DHT22;38809;53.300;6.614;2023-05-29T11:54:40;14.80;99.90
52943;DHT22;38809;53.300;6.614;2023-05-29T11:57:20;15.00;99.90
52943;DHT22;38809;53.300;6.614;2023-05-29T11:59:47;14.90;99.90
52943;DHT22;38809;53.300;6.614;2023-05-29T12:02:13;15.10;99.90
52943;DHT22;38809;53.300;6.614;2023-05-29T12:04:39;15.10;99.90
52943;DHT22;38809;53.300;6.614;2023-05-29T12:07:20;15.20;99.90
52943;DHT22;38809;53.300;6.614;2023-05-29T12:09:46;15.40;99.90
52943;DHT22;38809;53.300;6.614;2023-05-29T12:12:14;15.60;99.90
52943;DHT22;38809;53.300;6.614;2023-05-29T12:14:40;14.90;99.90
52943;DHT22;38809;53.300;6.614;2023-05-29T12:17:05;14.90;99.90
52943;DHT22;38809;53.300;6.614;2023-05-29T12:19:31;14.40;99.90
52943;DHT22;38809;53.300;6.614;2023-05-29T12:21:57;14.60;99.90
52943;DHT22;38809;53.300;6.614;2023-05-29T12:24:23;15.00;99.90
52943;DHT22;38809;53.300;6.614;2023-05-29T12:26:49;15.10;99.90
52943;DHT22;38809;53.300;6.614;2023-05-29T12:29:16;15.10;99.90
52943;DHT22;38809;53.300;6.614;2023-05-29T12:31:42;15.20;99.90
52943;DHT22;38809;53.300;6.614;2023-05-29T12:34:11;15.60;99.90
52943;DHT22;38809;53.300;6.614;2023-05-29T12:36:41;15.50;99.90
52943;DHT22;38809;53.300;6.614;2023-05-29T12:39:08;15.00;99.90
52943;DHT22;38809;53.300;6.614;2023-05-29T12:41:35;15.50;99.90
52943;DHT22;38809;53.300;6.614;2023-05-29T12:44:03;15.40;99.90
52943;DHT22;38809;53.300;6.614;2023-05-29T12:46:37;15.30;99.90
52943;DHT22;38809;53.300;6.614;2023-05-29T12:49:13;15.40;99.90
52943;DHT22;38809;53.300;6.614;2023-05-29T12:51:43;15.40;99.90
52943;DHT22;38809;53.300;6.614;2023-05-29T12:54:14;15.50;99.90
52943;DHT22;38809;53.300;6.614;2023-05-29T12:56:40;15.10;99.90
52943;DHT22;38809;53.300;6.614;2023-05-29T12:59:07;15.10;99.90
52943;DHT22;38809;53.300;6.614;2023-05-29T13:01:34;15.20;99.90
52943;DHT22;38809;53.300;6.614;2023-05-29T13:04:00;14.90;99.90
52943;DHT22;38809;53.300;6.614;2023-05-29T13:06:25;14.80;99.90
52943;DHT22;38809;53.300;6.614;2023-05-29T13:08:51;15.00;99.90
52943;DHT22;38809;53.300;6.614;2023-05-29T13:11:17;15.00;99.90
52943;DHT22;38809;53.300;6.614;2023-05-29T13:13:43;14.80;99.90
52943;DHT22;38809;53.300;6.614;2023-05-29T13:16:09;15.20;99.90
52943;DHT22;38809;53.300;6.614;2023-05-29T13:18:35;15.10;99.90
52943;DHT22;38809;53.300;6.614;2023-05-29T13:21:01;15.20;99.90
52943;DHT22;38809;53.300;6.614;2023-05-29T13:23:26;14.70;99.90
52943;DHT22;38809;53.300;6.614;2023-05-29T13:25:52;14.60;99.90
52943;DHT22;38809;53.300;6.614;2023-05-29T13:28:18;14.70;99.90
52943;DHT22;38809;53.300;6.614;2023-05-29T13:30:44;14.60;99.90
52943;DHT22;38809;53.300;6.614;2023-05-29T13:33:09;14.40;99.90
52943;DHT22;38809;53.300;6.614;2023-05-29T13:35:35;14.40;99.90
52943;DHT22;38809;53.300;6.614;2023-05-29T13:38:01;14.70;99.90
52943;DHT22;38809;53.300;6.614;2023-05-29T13:40:27;14.50;99.90
52943;DHT22;38809;53.300;6.614;2023-05-29T13:42:53;14.50;99.90
52943;DHT22;38809;53.300;6.614;2023-05-29T13:45:20;14.40;99.90
52943;DHT22;38809;53.300;6.614;2023-05-29T13:47:46;14.70;99.90
52943;DHT22;38809;53.300;6.614;2023-05-29T13:50:12;14.30;99.90
52943;DHT22;38809;53.300;6.614;2023-05-29T13:52:38;14.40;99.90
52943;DHT22;38809;53.300;6.614;2023-05-29T13:55:04;14.30;99.90
52943;DHT22;38809;53.300;6.614;2023-05-29T13:57:34;14.50;99.90
52943;DHT22;38809;53.300;6.614;2023-05-29T13:59:59;14.50;99.90
52943;DHT22;38809;53.300;6.614;2023-05-29T14:02:25;14.20;99.90
52943;DHT22;38809;53.300;6.614;2023-05-29T14:04:51;14.40;99.90
52943;DHT22;38809;53.300;6.614;2023-05-29T14:07:17;14.30;99.90
52943;DHT22;38809;53.300;6.614;2023-05-29T14:09:43;14.10;99.90
52943;DHT22;38809;53.300;6.614;2023-05-29T14:12:08;14.70;99.90
52943;DHT22;38809;53.300;6.614;2023-05-29T14:14:34;14.50;99.90
52943;DHT22;38809;53.300;6.614;2023-05-29T14:17:00;14.50;99.90
52943;DHT22;38809;53.300;6.614;2023-05-29T14:19:26;14.50;99.90
52943;DHT22;38809;53.300;6.614;2023-05-29T14:21:52;14.30;99.90
52943;DHT22;38809;53.300;6.614;2023-05-29T14:24:17;14.30;99.90
52943;DHT22;38809;53.300;6.614;2023-05-29T14:26:44;14.30;99.90
52943;DHT22;38809;53.300;6.614;2023-05-29T14:29:12;14.60;99.90
52943;DHT22;38809;53.300;6.614;2023-05-29T14:31:39;14.30;99.90
52943;DHT22;38809;53.300;6.614;2023-05-29T14:34:05;14.30;99.90
52943;DHT22;38809;53.300;6.614;2023-05-29T14:36:30;14.20;99.90
52943;DHT22;38809;53.300;6.614;2023-05-29T14:38:56;14.30;99.90
52943;DHT22;38809;53.300;6.614;2023-05-29T14:41:22;14.20;99.90
52943;DHT22;38809;53.300;6.614;2023-05-29T14:43:47;14.20;99.90
52943;DHT22;38809;53.300;6.614;2023-05-29T14:46:13;14.10;99.90
52943;DHT22;38809;53.300;6.614;2023-05-29T14:48:39;14.30;99.90
52943;DHT22;38809;53.300;6.614;2023-05-29T14:51:05;14.20;99.90
52943;DHT22;38809;53.300;6.614;2023-05-29T14:53:30;14.20;99.90
52943;DHT22;38809;53.300;6.614;2023-05-29T14:55:57;14.30;99.90
52943;DHT22;38809;53.300;6.614;2023-05-29T14:58:22;14.10;99.90
52943;DHT22;38809;53.300;6.614;2023-05-29T15:00:48;14.10;99.90
52943;DHT22;38809;53.300;6.614;2023-05-29T15:03:14;14.00;99.90
52943;DHT22;38809;53.300;6.614;2023-05-29T15:05:40;14.30;99.90
52943;DHT22;38809;53.300;6.614;2023-05-29T15:08:05;14.00;99.90
52943;DHT22;38809;53.300;6.614;2023-05-29T15:10:31;13.80;99.90
52943;DHT22;38809;53.300;6.614;2023-05-29T15:12:57;13.80;99.90
52943;DHT22;38809;53.300;6.614;2023-05-29T15:15:24;13.90;99.90
52943;DHT22;38809;53.300;6.614;2023-05-29T15:17:51;13.80;99.90
52943;DHT22;38809;53.300;6.614;2023-05-29T15:20:22;13.80;99.90
52943;DHT22;38809;53.300;6.614;2023-05-29T15:22:48;13.80;99.90
52943;DHT22;38809;53.300;6.614;2023-05-29T15:25:14;14.00;99.90
52943;DHT22;38809;53.300;6.614;2023-05-29T15:27:40;13.90;99.90
52943;DHT22;38809;53.300;6.614;2023-05-29T15:30:24;13.90;99.90
52943;DHT22;38809;53.300;6.614;2023-05-29T15:32:49;13.50;99.90
52943;DHT22;38809;53.300;6.614;2023-05-29T15:35:15;13.80;99.90
52943;DHT22;38809;53.300;6.614;2023-05-29T15:37:42;13.80;99.90
52943;DHT22;38809;53.300;6.614;2023-05-29T15:40:08;13.70;99.90
52943;DHT22;38809;53.300;6.614;2023-05-29T15:42:34;13.80;99.90
52943;DHT22;38809;53.300;6.614;2023-05-29T15:45:02;13.60;99.90
52943;DHT22;38809;53.300;6.614;2023-05-29T15:47:29;13.60;99.90
52943;DHT22;38809;53.300;6.614;2023-05-29T15:49:56;13.60;99.90
52943;DHT22;38809;53.300;6.614;2023-05-29T15:52:22;13.60;99.90
52943;DHT22;38809;53.300;6.614;2023-05-29T15:54:48;13.60;99.90
52943;DHT22;38809;53.300;6.614;2023-05-29T15:57:14;13.40;99.90
52943;DHT22;38809;53.300;6.614;2023-05-29T15:59:39;13.70;99.90
52943;DHT22;38809;53.300;6.614;2023-05-29T16:02:05;13.60;99.90
52943;DHT22;38809;53.300;6.614;2023-05-29T16:04:31;13.60;99.90
52943;DHT22;38809;53.300;6.614;2023-05-29T16:06:57;13.40;99.90
52943;DHT22;38809;53.300;6.614;2023-05-29T16:09:23;13.50;99.90